Time;durP1;ratioP1;P1;durP2;ratioP2;P2;SDS_P1;SDS_P2;PMS_P1;PMS_P2;Temp;Humidity;BMP_temperature;BMP_pressure;BME280_temperature;BME280_humidity;BME280_pressure;Samples;Min_cycle;Max_cycle;Signal;HPM_P1;HPM_P2
2022/04/22 00:01:40;;;;;;;20.60;16.17;;;;;;;10.79;82.20;100032.31;5028038;28;20045;-35
2022/04/22 00:04:06;;;;;;;20.75;16.13;;;;;;;10.72;82.25;100023.53;5027913;28;20077;-30
2022/04/22 00:06:31;;;;;;;20.25;16.05;;;;;;;10.88;81.58;100027.50;5027765;28;20109;-30
2022/04/22 00:08:57;;;;;;;20.98;16.20;;;;;;;10.82;81.58;100034.53;5027818;28;20025;-30
2022/04/22 00:11:32;;;;;;;22.25;16.95;;;;;;;10.82;81.58;100031.03;5027079;28;20039;-33
2022/04/22 00:14:02;;;;;;;20.27;16.75;;;;;;;10.79;81.30;100042.16;5026567;28;20152;-36
2022/04/22 00:16:30;;;;;;;19.88;15.57;;;;;;;10.70;82.18;100059.47;5026230;28;20090;-33
2022/04/22 00:18:56;;;;;;;20.85;16.65;;;;;;;10.71;82.30;100048.59;5027840;28;20116;-31
2022/04/22 00:21:22;;;;;;;25.17;18.23;;;;;;;10.58;83.23;100051.38;5027677;28;20046;-38
2022/04/22 00:23:49;;;;;;;20.20;15.70;;;;;;;10.30;84.22;100081.97;5026144;28;20022;-31
2022/04/22 00:26:15;;;;;;;17.67;12.50;;;;;;;9.67;86.50;100087.25;5027394;28;20120;-29
2022/04/22 00:28:41;;;;;;;18.52;13.90;;;;;;;9.61;87.03;100089.72;5026074;28;20172;-31
2022/04/22 00:31:06;;;;;;;20.15;15.27;;;;;;;9.47;87.86;100082.00;5027745;28;20539;-32
2022/04/22 00:33:32;;;;;;;21.52;15.52;;;;;;;9.43;88.08;100089.59;5027528;28;20409;-32
2022/04/22 00:35:58;;;;;;;22.35;16.25;;;;;;;9.43;89.15;100086.91;5027624;28;20052;-33
2022/04/22 00:38:23;;;;;;;23.58;17.55;;;;;;;9.47;88.54;100056.19;5025820;28;20032;-32
2022/04/22 00:40:49;;;;;;;23.00;16.77;;;;;;;9.70;88.88;100066.31;5027368;28;20465;-31
2022/04/22 00:43:15;;;;;;;22.83;16.77;;;;;;;9.80;88.80;100055.19;5027582;28;20549;-30
2022/04/22 00:45:41;;;;;;;25.10;16.85;;;;;;;9.85;88.55;100036.75;5026196;28;20095;-30
2022/04/22 00:48:07;;;;;;;22.70;16.80;;;;;;;9.82;88.67;100027.31;5026323;28;20033;-32
2022/04/22 00:50:33;;;;;;;23.88;17.02;;;;;;;9.85;89.10;100010.09;5025883;28;20026;-29
2022/04/22 00:52:59;;;;;;;22.63;17.02;;;;;;;9.85;88.36;99973.63;5027613;28;20033;-30
2022/04/22 00:55:24;;;;;;;22.88;16.58;;;;;;;9.89;89.17;99979.34;5027288;28;20029;-30
2022/04/22 00:57:50;;;;;;;20.45;15.60;;;;;;;10.01;88.64;99966.97;5027358;28;20029;-31
2022/04/22 01:00:16;;;;;;;21.55;16.65;;;;;;;10.03;88.09;99954.22;5025981;28;20065;-31
2022/04/22 01:02:41;;;;;;;21.83;16.50;;;;;;;10.14;87.99;99973.22;5027229;28;20057;-29
2022/04/22 01:10:37;;;;;;;22.88;17.42;;;;;;;10.54;84.96;99981.69;5027251;28;20457;-31
2022/04/22 01:13:03;;;;;;;22.42;17.45;;;;;;;10.38;85.80;99985.72;5027413;28;20029;-30
2022/04/22 01:15:29;;;;;;;20.90;16.92;;;;;;;9.99;87.87;99955.69;5026015;28;20116;-29
2022/04/22 01:17:55;;;;;;;24.80;17.38;;;;;;;9.99;88.84;99993.00;5025815;28;20489;-33
2022/04/22 01:20:20;;;;;;;21.73;16.23;;;;;;;10.18;86.81;99982.41;5025308;28;20030;-30
2022/04/22 01:22:46;;;;;;;21.08;16.92;;;;;;;10.47;84.73;99993.44;5030442;28;20025;-30
2022/04/22 01:25:11;;;;;;;24.90;18.58;;;;;;;10.08;86.36;99971.41;5029544;28;20482;-30
2022/04/22 01:27:37;;;;;;;24.73;17.27;;;;;;;9.82;89.05;99989.22;5030800;28;20033;-29
2022/04/22 01:30:08;;;;;;;22.40;16.88;;;;;;;9.81;89.46;99983.09;5029413;28;20044;-29
2022/04/22 01:32:33;;;;;;;21.50;16.77;;;;;;;9.41;91.49;99985.16;5030521;28;20036;-38
2022/04/22 01:34:59;;;;;;;23.63;17.42;;;;;;;9.54;91.83;99987.78;5028983;28;20029;-30
2022/04/22 01:37:24;;;;;;;36.17;18.20;;;;;;;9.42;92.26;100010.78;5030831;28;20025;-31
2022/04/22 01:39:50;;;;;;;26.10;19.38;;;;;;;9.66;91.11;100027.81;5030783;28;20029;-31
2022/04/22 01:42:18;;;;;;;30.55;20.85;;;;;;;9.84;90.14;100027.09;5030445;28;20028;-31
2022/04/22 01:44:44;;;;;;;30.60;21.30;;;;;;;9.56;91.68;100023.00;5028947;28;20025;-30
2022/04/22 01:47:10;;;;;;;26.80;20.20;;;;;;;9.61;92.69;100039.13;5028929;28;20586;-34
2022/04/22 01:49:35;;;;;;;27.58;19.95;;;;;;;9.56;92.22;100027.47;5030228;28;20037;-30
2022/04/22 01:52:01;;;;;;;25.33;18.95;;;;;;;9.64;91.83;100013.91;5030400;28;20485;-29
2022/04/22 01:54:26;;;;;;;24.20;17.17;;;;;;;9.68;91.76;100001.78;5030063;28;20117;-29
2022/04/22 01:56:51;;;;;;;25.40;17.08;;;;;;;9.58;91.65;99983.66;5030341;28;20026;-30
2022/04/22 01:59:17;;;;;;;25.90;17.30;;;;;;;9.73;91.94;100023.28;5030277;28;20489;-29
2022/04/22 02:01:42;;;;;;;26.08;17.88;;;;;;;9.82;90.49;100029.16;5030165;28;20025;-29
2022/04/22 02:04:08;;;;;;;24.80;16.52;;;;;;;9.83;90.46;100014.84;5029855;28;20037;-29
2022/04/22 02:06:33;;;;;;;25.10;16.75;;;;;;;10.02;89.74;100015.72;5028758;28;20026;-37
2022/04/22 02:08:59;;;;;;;24.35;16.45;;;;;;;9.89;89.51;100005.16;5030180;28;20052;-30
2022/04/22 02:11:24;;;;;;;24.83;16.25;;;;;;;9.93;90.29;100039.16;5029743;28;20026;-29
2022/04/22 02:13:50;;;;;;;19.83;14.57;;;;;;;10.20;88.89;100033.63;5030200;28;20029;-31
2022/04/22 02:16:15;;;;;;;21.08;14.45;;;;;;;10.27;86.76;100007.72;5029800;28;20107;-31
2022/04/22 02:18:42;;;;;;;22.25;16.30;;;;;;;10.33;86.89;100008.75;5029467;28;20033;-32
2022/04/22 02:21:09;;;;;;;24.10;16.13;;;;;;;10.64;85.33;100015.81;5029884;28;20025;-32
2022/04/22 02:23:35;;;;;;;21.35;14.70;;;;;;;10.52;85.13;99990.91;5028500;28;20041;-30
2022/04/22 02:26:02;;;;;;;24.27;14.95;;;;;;;10.63;84.12;99985.69;5028363;28;20025;-32
2022/04/22 02:28:35;;;;;;;24.52;16.73;;;;;;;10.67;84.31;100018.06;5027859;28;20025;-29
2022/04/22 02:31:06;;;;;;;24.38;18.05;;;;;;;10.74;83.60;100007.31;5028278;28;20182;-30
2022/04/22 02:33:33;;;;;;;23.65;17.20;;;;;;;10.36;85.56;99978.97;5026868;28;20076;-31
2022/04/22 02:35:59;;;;;;;24.35;17.67;;;;;;;10.41;85.30;99971.94;5027993;28;20644;-33
2022/04/22 02:38:27;;;;;;;22.73;17.67;;;;;;;10.54;84.93;99992.34;5029170;28;20122;-29
2022/04/22 02:46:20;;;;;;;25.25;17.40;;;;;;;10.33;86.39;100001.56;5029444;28;20044;-29
2022/04/22 02:48:45;;;;;;;26.20;17.10;;;;;;;10.08;87.96;99987.41;5029187;28;20030;-32
2022/04/22 02:51:11;;;;;;;27.25;17.33;;;;;;;10.19;87.57;99984.00;5029304;28;20113;-30
2022/04/22 02:53:38;;;;;;;23.65;16.88;;;;;;;10.24;87.01;99995.66;5029098;28;20049;-30
2022/04/22 02:56:06;;;;;;;22.90;17.13;;;;;;;10.23;86.89;99991.34;5027723;28;20413;-29
2022/04/22 02:58:31;;;;;;;22.48;16.20;;;;;;;10.27;86.28;99983.75;5027584;28;20037;-29
2022/04/22 03:00:56;;;;;;;24.13;16.45;;;;;;;10.52;85.67;99998.91;5027696;28;20036;-30
2022/04/22 03:03:22;;;;;;;22.85;16.23;;;;;;;10.47;84.92;99994.25;5029037;28;20033;-31
2022/04/22 03:05:48;;;;;;;23.75;15.90;;;;;;;10.69;84.07;100004.53;5029454;28;20104;-30
2022/04/22 03:08:13;;;;;;;23.33;16.90;;;;;;;10.53;83.62;99982.72;5027649;28;20021;-29
2022/04/22 03:10:39;;;;;;;21.42;17.02;;;;;;;10.70;83.40;99985.59;5028455;28;20030;-29
2022/04/22 03:13:04;;;;;;;24.95;17.15;;;;;;;10.39;85.46;99971.34;5029119;28;20049;-34
2022/04/22 03:15:31;;;;;;;22.80;17.92;;;;;;;10.13;86.57;99963.56;5028873;28;20025;-29
2022/04/22 03:17:56;;;;;;;25.40;17.73;;;;;;;10.34;85.67;99970.38;5027264;28;20030;-30
2022/04/22 03:20:22;;;;;;;22.90;17.95;;;;;;;10.36;85.02;99957.63;5028299;28;20036;-31
2022/04/22 03:22:47;;;;;;;23.42;17.38;;;;;;;10.34;85.09;99944.56;5028660;28;20037;-29
2022/04/22 03:25:13;;;;;;;24.08;17.52;;;;;;;10.28;85.61;99948.06;5026874;28;20509;-36
2022/04/22 03:27:38;;;;;;;21.95;17.00;;;;;;;10.32;85.04;99946.63;5028432;28;20048;-31
2022/04/22 03:30:04;;;;;;;24.38;18.65;;;;;;;10.26;85.35;99947.47;5028663;28;20060;-30
2022/04/22 03:32:30;;;;;;;25.25;18.10;;;;;;;10.27;86.14;99962.41;5026940;28;20029;-29
2022/04/22 03:34:56;;;;;;;24.83;18.42;;;;;;;10.45;85.17;99967.81;5028003;28;20671;-30
2022/04/22 03:37:21;;;;;;;25.73;19.55;;;;;;;10.23;85.05;99942.56;5026953;28;20040;-38
2022/04/22 03:39:47;;;;;;;24.05;18.77;;;;;;;10.40;85.22;99966.81;5028149;28;20037;-30
2022/04/22 03:42:13;;;;;;;23.20;17.67;;;;;;;10.41;84.61;99961.28;5028419;28;20025;-29
2022/04/22 03:44:39;;;;;;;25.52;18.00;;;;;;;10.31;85.24;99966.31;5028130;28;20033;-31
2022/04/22 03:47:07;;;;;;;25.55;17.95;;;;;;;10.18;84.87;99955.75;5028322;28;20024;-29
2022/04/22 03:49:33;;;;;;;24.70;18.15;;;;;;;10.39;84.70;99974.03;5026902;28;20086;-31
2022/04/22 03:51:59;;;;;;;24.65;17.75;;;;;;;10.16;85.92;99973.81;5026926;28;20037;-29
2022/04/22 03:54:25;;;;;;;26.65;19.73;;;;;;;10.19;86.08;99963.50;5027570;28;20033;-32
2022/04/22 03:59:35;;;;;;;26.63;20.13;;;;;;;10.44;85.48;99970.69;5028401;28;20505;-30
2022/04/22 04:02:04;;;;;;;28.15;21.67;;;;;;;10.40;86.26;99959.66;5028525;28;20048;-29
2022/04/22 04:04:30;;;;;;;27.30;21.35;;;;;;;10.45;86.04;99957.16;5027796;28;20029;-31
2022/04/22 04:06:55;;;;;;;26.55;21.23;;;;;;;10.48;85.44;99957.75;5026437;28;20022;-32
2022/04/22 04:17:38;;;;;;;25.25;17.92;;;;;;;10.38;86.36;99991.06;5027609;28;20630;-29
2022/04/22 04:25:33;;;;;;;23.52;17.90;;;;;;;10.17;87.38;99991.41;5028039;28;20099;-33
2022/04/22 04:27:59;;;;;;;25.23;19.48;;;;;;;10.32;87.00;100010.59;5027699;28;20037;-32
2022/04/22 04:30:25;;;;;;;24.65;18.83;;;;;;;10.35;87.05;100009.34;5027682;28;20482;-31
2022/04/22 04:32:50;;;;;;;24.58;18.35;;;;;;;10.29;87.57;100010.19;5028079;28;20121;-30
2022/04/22 04:35:16;;;;;;;26.38;18.58;;;;;;;10.33;86.89;100012.22;5027514;28;20041;-31
2022/04/22 04:37:42;;;;;;;23.05;18.33;;;;;;;10.44;86.73;100000.00;5027622;28;20026;-32
2022/04/22 04:40:10;;;;;;;29.73;19.98;;;;;;;10.48;86.53;100013.72;5027504;28;20116;-32
2022/04/22 04:42:36;;;;;;;22.92;17.52;;;;;;;10.48;86.16;100016.38;5027098;28;20026;-31
2022/04/22 04:45:03;;;;;;;25.73;18.70;;;;;;;10.58;86.05;100019.38;5026375;28;20036;-29
2022/04/22 04:47:29;;;;;;;26.75;19.17;;;;;;;10.75;84.37;100009.78;5026361;28;20025;-34
2022/04/22 04:49:55;;;;;;;24.08;19.33;;;;;;;10.75;85.31;100015.13;5027555;28;20112;-29
2022/04/22 04:52:20;;;;;;;21.65;17.70;;;;;;;10.56;86.68;100021.44;5027418;28;20140;-29
2022/04/22 04:54:48;;;;;;;23.08;18.80;;;;;;;10.63;86.40;100014.22;5027345;28;20036;-32
2022/04/22 04:57:13;;;;;;;25.60;18.55;;;;;;;10.57;85.94;99996.44;5028506;28;20025;-30
2022/04/22 04:59:39;;;;;;;23.52;18.23;;;;;;;10.68;86.44;100009.00;5031316;28;20099;-29
2022/04/22 05:02:04;;;;;;;26.30;20.88;;;;;;;10.78;85.28;100006.66;5031502;28;20025;-36
2022/04/22 05:04:30;;;;;;;34.88;23.13;;;;;;;10.45;87.10;99997.13;5029533;28;20033;-33
2022/04/22 05:06:56;;;;;;;69.70;42.22;;;;;;;10.46;87.34;99992.59;5031219;28;20041;-34
2022/04/22 05:09:22;;;;;;;91.05;50.92;;;;;;;10.55;87.68;99985.16;5029677;28;20033;-31
2022/04/22 05:11:48;;;;;;;127.53;66.97;;;;;;;10.37;87.82;99984.09;5030896;28;20622;-29
2022/04/22 05:14:13;;;;;;;50.42;35.03;;;;;;;10.64;86.13;99970.50;5031263;28;20041;-31
2022/04/22 05:16:38;;;;;;;51.95;36.60;;;;;;;10.58;86.33;99982.88;5030828;28;20043;-30
2022/04/22 05:19:04;;;;;;;38.85;27.30;;;;;;;10.71;86.30;100005.91;5031125;28;20105;-31
2022/04/22 05:21:29;;;;;;;28.33;20.77;;;;;;;10.84;85.97;100019.09;5030916;28;20052;-32
2022/04/22 05:23:55;;;;;;;26.30;20.83;;;;;;;10.73;85.32;100011.84;5031234;28;20396;-32
2022/04/22 05:26:23;;;;;;;29.55;21.85;;;;;;;10.95;84.05;100014.06;5030569;28;20405;-30
2022/04/22 05:28:49;;;;;;;27.83;21.38;;;;;;;10.83;84.48;99990.81;5029563;28;20033;-31
2022/04/22 05:33:58;;;;;;;29.60;23.95;;;;;;;10.77;87.30;100018.38;5030943;28;20040;-30
2022/04/22 05:36:23;;;;;;;29.02;19.63;;;;;;;10.81;85.28;100003.56;5030554;28;20376;-34
2022/04/22 05:38:52;;;;;;;38.05;33.83;;;;;;;10.79;85.44;100015.50;5030204;28;20431;-30
2022/04/22 05:41:18;;;;;;;30.10;21.70;;;;;;;10.76;86.01;100030.06;5030702;28;20030;-29
2022/04/22 05:43:44;;;;;;;26.98;19.52;;;;;;;10.75;85.71;100035.63;5030371;28;20088;-30
2022/04/22 05:46:09;;;;;;;27.52;20.10;;;;;;;10.70;85.63;100033.63;5030375;28;20408;-31
2022/04/22 05:48:34;;;;;;;27.17;19.60;;;;;;;10.52;87.33;100030.91;5028728;28;20026;-32
2022/04/22 05:51:00;;;;;;;28.00;21.13;;;;;;;10.72;86.83;100025.41;5030551;28;20029;-32
2022/04/22 05:53:25;;;;;;;28.92;21.55;;;;;;;10.81;85.39;100029.44;5030356;28;20131;-30
2022/04/22 05:55:51;;;;;;;20.98;17.70;;;;;;;10.88;85.46;100037.34;5029040;28;20099;-31
2022/04/22 05:58:17;;;;;;;27.10;23.52;;;;;;;11.04;84.43;100050.91;5029188;28;20121;-29
2022/04/22 06:00:42;;;;;;;59.15;51.75;;;;;;;10.98;84.21;100045.66;5030101;28;20041;-31
2022/04/22 06:03:08;;;;;;;29.20;23.13;;;;;;;10.98;85.05;100051.00;5030294;28;20021;-31
2022/04/22 06:05:33;;;;;;;26.33;21.27;;;;;;;11.00;84.50;100048.91;5029966;28;20037;-37
2022/04/22 06:10:50;;;;;;;30.00;24.80;;;;;;;11.29;82.40;100055.34;5030269;28;20137;-31
2022/04/22 06:13:16;;;;;;;30.25;21.98;;;;;;;11.12;83.00;100041.81;5029892;28;20436;-32
2022/04/22 06:15:41;;;;;;;31.42;24.50;;;;;;;11.24;83.15;100061.38;5029816;28;20039;-31
2022/04/22 06:18:07;;;;;;;43.20;38.97;;;;;;;11.21;83.83;100067.13;5029854;28;20029;-31
2022/04/22 06:20:32;;;;;;;29.98;22.05;;;;;;;11.35;82.45;100045.66;5029420;28;20416;-30
2022/04/22 06:23:00;;;;;;;29.63;20.60;;;;;;;11.27;82.22;100042.22;5029920;28;20021;-33
2022/04/22 06:25:26;;;;;;;28.38;23.48;;;;;;;11.19;83.12;100028.38;5029889;28;20087;-29
2022/04/22 06:27:51;;;;;;;31.88;20.88;;;;;;;11.19;83.67;100031.03;5028339;28;20457;-34
2022/04/22 06:30:19;;;;;;;34.67;27.80;;;;;;;11.16;85.05;100059.00;5029389;28;20473;-38
2022/04/22 06:32:48;;;;;;;43.20;38.53;;;;;;;11.20;84.50;100032.69;5029559;28;20028;-29
2022/04/22 06:35:14;;;;;;;26.27;22.25;;;;;;;11.36;84.07;100036.56;5027667;28;20521;-29
2022/04/22 06:37:45;;;;;;;25.25;19.63;;;;;;;11.19;85.10;100039.84;5028141;28;20041;-32
2022/04/22 06:45:46;;;;;;;25.20;20.17;;;;;;;11.06;85.86;100032.03;5029718;28;20040;-32
2022/04/22 06:48:17;;;;;;;42.05;28.65;;;;;;;11.04;86.57;100026.91;5028206;28;20067;-32
2022/04/22 06:50:50;;;;;;;25.63;18.98;;;;;;;11.29;86.26;100035.84;5029297;28;20037;-34
2022/04/22 06:53:17;;;;;;;22.85;18.38;;;;;;;11.14;86.79;100037.06;5029326;28;20037;-30
2022/04/22 06:55:45;;;;;;;19.80;16.30;;;;;;;11.20;86.10;100033.50;5026890;28;20044;-30
2022/04/22 06:58:14;;;;;;;21.05;17.10;;;;;;;11.25;86.63;100035.47;5026865;28;20476;-30
2022/04/22 07:00:41;;;;;;;21.02;16.38;;;;;;;11.22;87.20;100036.75;5027319;28;20128;-30
2022/04/22 07:03:07;;;;;;;23.17;18.10;;;;;;;11.55;85.76;100030.19;5027577;28;20033;-33
2022/04/22 07:05:34;;;;;;;23.70;17.05;;;;;;;11.31;86.13;99996.41;5027285;28;20072;-29
2022/04/22 07:08:02;;;;;;;29.70;21.92;;;;;;;11.49;86.38;99980.34;5027278;28;20026;-29
2022/04/22 07:10:29;;;;;;;28.67;21.63;;;;;;;11.19;87.24;99940.28;5028477;28;20025;-32
2022/04/22 07:12:56;;;;;;;27.38;19.90;;;;;;;11.26;87.68;99938.34;5027326;28;20108;-30
2022/04/22 07:15:22;;;;;;;25.88;20.05;;;;;;;11.07;89.30;99905.53;5027315;28;20048;-31
2022/04/22 07:17:48;;;;;;;24.20;19.40;;;;;;;11.09;88.72;99906.13;5028476;28;20052;-31
2022/04/22 07:20:14;;;;;;;20.80;16.23;;;;;;;11.26;89.44;99935.69;5027932;28;20083;-31
2022/04/22 07:22:41;;;;;;;21.15;15.70;;;;;;;11.59;87.39;99926.38;5026828;28;20022;-32
2022/04/22 07:25:08;;;;;;;40.08;36.28;;;;;;;11.61;87.76;99919.75;5010500;28;20737;-30
2022/04/22 07:27:37;;;;;;;26.10;22.50;;;;;;;11.63;86.68;99914.19;5010307;28;20025;-31
2022/04/22 07:30:05;;;;;;;22.70;17.00;;;;;;;14.23;87.64;99920.38;5026742;28;20045;-33
2022/04/22 07:32:30;;;;;;;24.13;17.13;;;;;;;13.55;82.52;99913.44;5026672;28;20033;-29
2022/04/22 07:34:56;;;;;;;18.42;13.88;;;;;;;14.32;83.12;99890.44;5027861;28;20292;-30
2022/04/22 07:37:23;;;;;;;17.00;13.95;;;;;;;14.27;82.19;99924.19;5026606;28;20413;-38
2022/04/22 07:39:49;;;;;;;17.95;14.32;;;;;;;13.66;78.93;99937.44;5026802;28;20044;-30
2022/04/22 07:42:17;;;;;;;16.55;14.20;;;;;;;13.24;79.84;99926.25;5026935;28;20557;-30
2022/04/22 07:47:31;;;;;;;21.52;16.55;;;;;;;12.89;84.47;99945.09;5028031;28;20176;-30
2022/04/22 07:49:57;;;;;;;23.27;17.45;;;;;;;12.79;85.72;99933.16;5025992;28;20033;-32
2022/04/22 07:52:23;;;;;;;20.17;15.40;;;;;;;12.75;84.89;99929.31;5027768;28;20033;-32
2022/04/22 07:54:48;;;;;;;17.92;14.52;;;;;;;12.93;84.71;99939.03;5026283;28;20037;-31
2022/04/22 07:57:14;;;;;;;19.85;15.48;;;;;;;12.86;84.54;99925.78;5027805;28;20083;-31
2022/04/22 07:59:41;;;;;;;18.30;14.57;;;;;;;12.68;83.67;99915.25;5027667;28;20417;-31
2022/04/22 08:02:07;;;;;;;21.73;14.18;;;;;;;12.92;85.20;99909.84;5026334;28;20095;-32
2022/04/22 08:04:32;;;;;;;20.55;15.32;;;;;;;12.99;85.04;99905.16;5027211;28;20387;-29
2022/04/22 08:06:57;;;;;;;17.35;13.20;;;;;;;12.96;82.51;99924.38;5028030;28;20034;-33
2022/04/22 08:09:23;;;;;;;19.17;13.13;;;;;;;12.81;82.99;99912.31;5027905;28;20080;-30
2022/04/22 08:11:48;;;;;;;16.30;12.90;;;;;;;12.42;83.72;99905.88;5027596;28;20033;-29
2022/04/22 08:14:14;;;;;;;20.67;15.82;;;;;;;12.34;84.58;99909.75;5027725;28;20036;-29
2022/04/22 08:16:39;;;;;;;19.60;14.45;;;;;;;12.52;84.58;99921.31;5026726;28;20489;-38
2022/04/22 08:19:05;;;;;;;17.77;13.98;;;;;;;12.68;84.52;99909.91;5025753;28;20036;-30
2022/04/22 08:21:33;;;;;;;14.45;11.85;;;;;;;12.85;82.60;99920.66;5026237;28;20029;-33
2022/04/22 08:24:02;;;;;;;17.70;12.18;;;;;;;12.70;84.09;99907.78;5026390;28;20044;-30
2022/04/22 08:26:31;;;;;;;16.90;12.07;;;;;;;12.89;82.45;99916.47;5025772;28;20033;-32
2022/04/22 08:28:56;;;;;;;16.20;13.00;;;;;;;13.13;83.29;99911.84;5026116;28;20037;-29
2022/04/22 08:31:22;;;;;;;16.92;12.00;;;;;;;13.20;81.86;99896.47;5027102;28;20035;-30
2022/04/22 08:33:49;;;;;;;25.75;14.82;;;;;;;13.14;82.82;99881.34;5031203;28;20038;-30
2022/04/22 08:36:15;;;;;;;15.82;11.40;;;;;;;13.56;81.25;99878.34;5031338;28;20076;-31
2022/04/22 08:38:40;;;;;;;17.73;12.60;;;;;;;13.92;82.03;99892.31;5029785;28;20030;-30
2022/04/22 08:41:07;;;;;;;17.25;12.85;;;;;;;14.17;81.61;99891.06;5031382;28;20080;-33
2022/04/22 08:43:35;;;;;;;16.80;12.70;;;;;;;14.24;79.86;99894.38;5029984;28;20034;-29
2022/04/22 08:46:00;;;;;;;16.43;12.10;;;;;;;14.28;79.61;99898.19;5029995;28;20040;-35
2022/04/22 08:51:24;;;;;;;16.10;11.50;;;;;;;13.99;79.71;99874.19;5018760;28;20072;-31
2022/04/22 08:53:52;;;;;;;16.95;11.98;;;;;;;14.09;81.78;99888.81;5031213;28;20061;-31
2022/04/22 08:56:18;;;;;;;;;;;;;;;14.32;80.94;99874.34;5031414;28;20049;-31
2022/04/22 08:58:44;;;;;;;18.17;13.05;;;;;;;14.20;81.32;99861.06;5029216;28;20348;-32
2022/04/22 09:01:09;;;;;;;17.42;13.25;;;;;;;14.82;78.85;99843.88;5030831;28;20029;-38
2022/04/22 09:03:35;;;;;;;17.40;12.93;;;;;;;15.53;80.03;99851.78;5031235;28;20025;-33
2022/04/22 09:06:00;;;;;;;19.80;13.70;;;;;;;15.49;76.74;99850.69;5031163;28;20037;-31
2022/04/22 09:08:28;;;;;;;18.58;11.25;;;;;;;15.47;75.17;99842.06;5030741;28;20021;-30
2022/04/22 09:10:54;;;;;;;18.80;11.32;;;;;;;15.24;74.70;99805.59;5029370;28;20036;-31
2022/04/22 09:13:27;;;;;;;17.52;11.38;;;;;;;15.54;73.98;99815.75;5029226;28;20037;-30
2022/04/22 09:15:54;;;;;;;15.35;10.40;;;;;;;15.55;72.58;99825.47;5029412;28;20521;-29
2022/04/22 09:18:23;;;;;;;13.95;10.60;;;;;;;15.26;74.84;99823.09;5029258;28;20026;-30
2022/04/22 09:20:49;;;;;;;13.85;9.40;;;;;;;16.03;72.60;99829.00;5028968;28;20747;-30
2022/04/22 09:23:23;;;;;;;13.13;9.13;;;;;;;16.25;72.96;99826.16;5030846;28;20114;-33
2022/04/22 09:25:48;;;;;;;13.52;9.27;;;;;;;16.25;73.49;99831.56;5030150;28;20082;-30
2022/04/22 09:28:14;;;;;;;17.42;9.93;;;;;;;15.89;71.18;99827.06;5030388;28;20037;-35
2022/04/22 09:30:42;;;;;;;11.77;8.80;;;;;;;16.26;71.68;99810.84;5030189;28;20478;-30
2022/04/22 09:33:09;;;;;;;13.25;9.20;;;;;;;16.48;69.64;99813.34;5030533;28;20036;-31
2022/04/22 09:42:38;;;;;;;13.90;8.23;;;;;;;16.36;69.17;99800.09;5028423;28;20111;-32
2022/04/22 09:43:51;;;;;;;11.70;7.65;;;;;;;16.70;67.26;99780.03;5030010;28;20032;-34
2022/04/22 09:46:32;;;;;;;11.05;8.00;;;;;;;16.80;67.58;99771.97;5029958;28;20033;-29
2022/04/22 09:48:59;;;;;;;9.68;6.90;;;;;;;16.87;66.62;99751.00;5030191;28;20021;-33
2022/04/22 09:51:30;;;;;;;14.07;8.50;;;;;;;16.83;68.72;99761.47;5028685;28;20037;-31
2022/04/22 09:53:59;;;;;;;13.32;8.65;;;;;;;17.63;69.39;99773.59;5029978;28;20034;-30
2022/04/22 09:56:25;;;;;;;12.95;8.60;;;;;;;17.73;68.51;99767.38;5029472;28;20036;-34
2022/04/22 09:58:50;;;;;;;13.38;8.55;;;;;;;17.78;67.22;99741.19;5030159;28;20460;-32
2022/04/22 10:01:16;;;;;;;16.70;8.40;;;;;;;17.77;66.17;99741.47;5029596;28;20257;-32
2022/04/22 10:03:42;;;;;;;11.10;7.35;;;;;;;17.93;66.70;99740.38;5029603;28;20458;-31
2022/04/22 10:06:07;;;;;;;11.07;7.93;;;;;;;17.75;65.65;99732.84;5030058;28;20036;-29
2022/04/22 10:08:37;;;;;;;9.93;7.15;;;;;;;17.95;65.58;99732.00;5029654;28;20433;-31
2022/04/22 10:11:07;;;;;;;10.55;7.35;;;;;;;18.55;63.18;99727.38;5028176;28;20177;-32
2022/04/22 10:13:46;;;;;;;9.23;6.57;;;;;;;18.21;62.56;99724.59;5028062;28;20180;-30
2022/04/22 10:16:13;;;;;;;11.45;6.07;;;;;;;18.44;63.42;99705.03;5029673;28;20036;-30
2022/04/22 10:18:40;;;;;;;9.50;7.18;;;;;;;18.67;63.21;99710.81;5027961;28;20049;-31
2022/04/22 10:21:06;;;;;;;12.98;6.53;;;;;;;18.93;61.99;99718.75;5027839;28;20124;-31
2022/04/22 10:23:32;;;;;;;11.68;6.90;;;;;;;19.12;62.40;99716.97;5029476;28;20117;-31
2022/04/22 10:25:59;;;;;;;10.18;7.07;;;;;;;19.25;60.54;99696.59;5029594;28;20029;-38
2022/04/22 10:28:27;;;;;;;12.15;7.72;;;;;;;19.40;61.69;99712.63;5028887;28;20095;-29
2022/04/22 10:30:54;;;;;;;9.73;6.38;;;;;;;19.28;60.62;99702.22;5027998;28;20124;-32
2022/04/22 10:33:39;;;;;;;11.40;6.40;;;;;;;18.94;59.78;99725.75;5029146;28;20087;-32
2022/04/22 10:36:05;;;;;;;8.02;5.78;;;;;;;18.70;60.53;99688.66;5027472;28;20061;-30
2022/04/22 10:38:39;;;;;;;8.75;6.35;;;;;;;19.37;60.73;99696.19;5028879;28;20219;-35
2022/04/22 10:41:23;;;;;;;10.00;6.25;;;;;;;18.89;60.41;99693.41;5027794;28;20750;-35
2022/04/22 10:49:36;;;;;;;7.90;5.57;;;;;;;19.32;58.79;99653.00;5029439;28;20106;-30
2022/04/22 10:52:10;;;;;;;9.35;5.75;;;;;;;19.83;58.97;99644.28;5027551;28;20041;-30
2022/04/22 10:54:51;;;;;;;12.32;5.63;;;;;;;19.95;57.77;99652.78;5027736;28;20082;-33
2022/04/22 10:57:24;;;;;;;7.80;5.38;;;;;;;19.99;57.14;99653.81;5028760;28;20480;-33
2022/04/22 11:00:07;;;;;;;6.95;4.40;;;;;;;19.50;58.16;99646.03;5028775;28;20106;-32
2022/04/22 11:02:43;;;;;;;7.05;4.80;;;;;;;19.37;58.28;99636.69;5028655;28;20505;-31
2022/04/22 11:08:05;;;;;;;7.93;5.00;;;;;;;19.92;58.16;99653.38;5028666;28;20143;-31
2022/04/22 11:10:45;;;;;;;9.77;5.60;;;;;;;20.30;56.86;99639.84;5028551;28;20032;-30
2022/04/22 11:13:34;;;;;;;8.63;5.07;;;;;;;20.22;54.84;99621.56;5028588;28;20032;-33
2022/04/22 11:16:04;;;;;;;7.70;4.28;;;;;;;19.94;55.17;99596.25;5027156;28;20040;-30
2022/04/22 11:18:31;;;;;;;10.18;4.70;;;;;;;20.41;56.91;99611.53;5026892;28;20029;-31
2022/04/22 11:21:04;;;;;;;8.55;4.55;;;;;;;20.04;54.78;99588.81;5026984;28;20489;-32
2022/04/22 11:23:35;;;;;;;7.72;4.22;;;;;;;20.20;55.10;99600.19;5026836;28;20140;-30
2022/04/22 11:26:01;;;;;;;8.82;4.05;;;;;;;20.36;54.52;99591.84;5028332;28;20029;-32
2022/04/22 11:28:28;;;;;;;8.80;4.10;;;;;;;20.50;54.85;99597.31;5027907;28;20075;-30
2022/04/22 11:30:53;;;;;;;7.78;3.40;;;;;;;20.54;54.06;99577.44;5026681;28;20575;-29
2022/04/22 11:33:22;;;;;;;6.88;3.92;;;;;;;21.34;52.92;99585.50;5028083;28;20061;-29
2022/04/22 11:35:57;;;;;;;6.38;3.88;;;;;;;21.66;53.42;99577.25;5027978;28;20782;-34
2022/04/22 11:38:24;;;;;;;8.68;4.05;;;;;;;22.02;53.42;99587.28;5026285;28;20021;-31
2022/04/22 11:40:50;;;;;;;5.78;4.20;;;;;;;22.11;50.47;99567.56;5010273;28;20147;-33
2022/04/22 11:43:18;;;;;;;7.32;4.13;;;;;;;22.22;52.40;99574.34;5027826;28;20056;-31
2022/04/22 11:45:46;;;;;;;7.38;3.88;;;;;;;21.92;52.14;99571.25;5027986;28;20508;-30
2022/04/22 11:48:22;;;;;;;8.38;4.53;;;;;;;22.20;51.10;99530.41;5028112;28;20088;-33
2022/04/22 11:50:48;;;;;;;9.93;3.80;;;;;;;22.80;51.93;99557.16;5009868;28;20044;-34
2022/04/22 11:53:17;;;;;;;6.90;4.20;;;;;;;23.30;49.51;99542.47;5027764;28;20037;-30
2022/04/22 11:55:43;;;;;;;6.68;3.63;;;;;;;23.87;47.75;99549.78;5026018;28;20025;-37
2022/04/22 11:58:13;;;;;;;5.95;3.13;;;;;;;23.20;47.40;99527.25;5026200;28;20467;-30
2022/04/22 12:06:12;;;;;;;;;;;;;;;23.70;44.58;99525.25;5027817;28;20075;-30
2022/04/22 12:08:52;;;;;;;5.53;3.20;;;;;;;23.91;45.11;99518.06;5026118;28;19912;-30
2022/04/22 12:11:18;;;;;;;6.60;3.80;;;;;;;23.70;46.67;99509.72;5026352;28;20041;-30
2022/04/22 12:13:48;;;;;;;9.80;3.53;;;;;;;23.67;47.69;99486.66;5025978;28;20033;-31
2022/04/22 12:16:27;;;;;;;8.05;3.35;;;;;;;23.73;46.66;99495.47;5027526;28;20094;-32
2022/04/22 12:18:54;;;;;;;5.82;3.47;;;;;;;24.01;48.48;99503.34;5026089;28;20037;-33
2022/04/22 12:21:21;;;;;;;7.47;4.28;;;;;;;24.15;48.92;99497.69;5027255;28;20405;-30
2022/04/22 12:23:48;;;;;;;8.68;4.07;;;;;;;23.79;48.57;99474.34;5026090;28;20037;-30